createdAt,value
2022-08-07T00:00:03.029Z,383.8990
2022-08-07T00:00:14.833Z,384.1200
2022-08-07T00:00:29.876Z,382.1390
2022-08-07T00:00:40.936Z,386.1220
2022-08-07T00:00:52.016Z,393.6440
2022-08-07T00:01:12.645Z,395.2780
2022-08-07T00:01:43.982Z,387.6940
2022-08-07T00:01:44.490Z,390.8750
2022-08-07T00:02:36.647Z,376.4310
2022-08-07T00:02:37.292Z,378.1660
2022-08-07T00:02:39.923Z,375.5690
2022-08-07T00:02:44.970Z,373.4320
2022-08-07T00:02:56.112Z,378.1660
2022-08-07T00:03:07.148Z,387.4680
2022-08-07T00:03:19.876Z,387.6940
2022-08-07T00:03:37.034Z,383.6780
2022-08-07T00:03:48.064Z,385.2300
2022-08-07T00:03:59.760Z,391.7940
2022-08-07T00:04:15.547Z,387.9190
2022-08-07T00:04:27.106Z,389.2780
2022-08-07T00:04:38.699Z,393.1800
2022-08-07T00:04:49.895Z,396.4530
2022-08-07T00:05:01.089Z,398.3470
2022-08-07T00:05:15.227Z,396.9250
2022-08-07T00:05:26.273Z,401.9490
2022-08-07T00:05:38.178Z,401.2230
2022-08-07T00:05:49.240Z,406.6060
2022-08-07T00:06:00.437Z,409.1000
2022-08-07T00:06:11.509Z,409.1000
2022-08-07T00:06:32.948Z,409.1000
2022-08-07T00:06:51.120Z,405.6160
2022-08-07T00:06:56.495Z,397.3980
2022-08-07T00:07:13.439Z,391.7940
2022-08-07T00:07:27.270Z,390.1890
2022-08-07T00:07:40.138Z,395.9820
2022-08-07T00:07:59.848Z,393.1800
2022-08-07T00:08:09.559Z,390.8750
2022-08-07T00:08:25.485Z,384.5640
2022-08-07T00:08:36.548Z,392.9480
2022-08-07T00:08:53.505Z,392.2550
2022-08-07T00:09:16.949Z,390.1890
2022-08-07T00:09:33.173Z,386.7940
2022-08-07T00:09:40.449Z,383.6780
2022-08-07T00:10:19.271Z,378.1660
2022-08-07T00:10:26.399Z,375.5690
2022-08-07T00:10:31.766Z,374.2840
2022-08-07T00:10:47.702Z,382.3580
2022-08-07T00:10:59.960Z,377.2960
2022-08-07T00:11:11.045Z,383.8990
2022-08-07T00:11:30.176Z,389.5050
2022-08-07T00:11:54.242Z,387.6940
2022-08-07T00:11:58.742Z,385.4530
2022-08-07T00:12:10.229Z,385.0080
2022-08-07T00:12:21.609Z,388.5970
2022-08-07T00:12:32.704Z,395.5120
2022-08-07T00:12:59.800Z,397.1610
2022-08-07T00:13:09.554Z,391.3340
2022-08-07T00:13:25.598Z,389.0510
2022-08-07T00:13:35.639Z,387.6940
2022-08-07T00:13:52.589Z,384.5640
2022-08-07T00:14:06.076Z,385.4530
2022-08-07T00:14:17.127Z,392.0240
2022-08-07T00:14:31.055Z,392.0240
2022-08-07T00:14:44.190Z,398.5850
2022-08-07T00:14:55.588Z,395.5120
2022-08-07T00:15:06.639Z,400.5000
2022-08-07T00:15:17.709Z,403.8970
2022-08-07T00:15:38.455Z,407.1020
2022-08-07T00:15:46.797Z,402.1910
2022-08-07T00:16:02.728Z,395.9820
2022-08-07T00:16:17.335Z,400.0200
2022-08-07T00:16:28.919Z,398.8240
2022-08-07T00:16:39.987Z,404.8770
2022-08-07T00:16:52.730Z,406.8540
2022-08-07T00:17:03.809Z,408.0990
2022-08-07T00:17:17.699Z,408.5990
2022-08-07T00:17:29.101Z,413.4120
2022-08-07T00:17:45.715Z,406.1100
2022-08-07T00:18:00.218Z,403.8970
2022-08-07T00:18:19.757Z,405.8630
2022-08-07T00:18:29.162Z,404.3860
2022-08-07T00:18:40.326Z,408.5990
2022-08-07T00:18:51.583Z,413.4120
2022-08-07T00:19:03.743Z,414.6970
2022-08-07T00:19:21.749Z,415.9910
2022-08-07T00:20:00.012Z,411.1180
2022-08-07T00:20:02.529Z,403.4080
2022-08-07T00:20:08.206Z,400.0200
2022-08-07T00:20:29.675Z,401.7070
2022-08-07T00:20:36.260Z,403.6520
2022-08-07T00:20:47.752Z,408.3490
2022-08-07T00:21:01.726Z,409.3510
2022-08-07T00:21:56.568Z,407.6000
2022-08-07T00:21:57.480Z,401.9490
2022-08-07T00:21:57.509Z,397.8720
2022-08-07T00:22:05.571Z,393.1800
2022-08-07T00:22:24.802Z,402.6770
2022-08-07T00:22:35.384Z,396.6880
2022-08-07T00:22:51.580Z,396.4530
2022-08-07T00:23:03.979Z,398.3470
2022-08-07T00:23:21.238Z,392.9480
2022-08-07T00:23:32.724Z,395.0430
2022-08-07T00:23:44.546Z,402.6770
2022-08-07T00:23:58.632Z,403.1640
2022-08-07T00:24:09.696Z,408.5990
2022-08-07T00:24:20.734Z,409.6030
2022-08-07T00:24:34.583Z,412.9000
2022-08-07T00:24:47.705Z,410.8650
2022-08-07T00:24:58.786Z,416.2500
2022-08-07T00:25:16.505Z,417.8150
2022-08-07T00:25:27.626Z,411.3710
2022-08-07T00:25:51.717Z,402.6770
2022-08-07T00:26:13.405Z,401.4650
2022-08-07T00:26:48.758Z,397.1610
2022-08-07T00:26:49.192Z,393.8770
2022-08-07T00:26:59.193Z,392.2550
2022-08-07T00:27:09.447Z,386.3460
2022-08-07T00:27:24.933Z,393.6440
2022-08-07T00:27:53.199Z,392.2550
2022-08-07T00:27:56.586Z,389.2780
2022-08-07T00:28:10.761Z,393.6440
2022-08-07T00:28:22.067Z,396.9250
2022-08-07T00:28:34.390Z,401.9490
2022-08-07T00:28:55.347Z,407.1020
2022-08-07T00:29:02.849Z,398.3470
2022-08-07T00:29:13.869Z,404.1410
2022-08-07T00:29:31.347Z,405.3700
2022-08-07T00:29:43.993Z,403.6520
2022-08-07T00:29:55.852Z,404.6320
2022-08-07T00:30:07.089Z,407.3510
2022-08-07T00:30:27.506Z,404.6320
2022-08-07T00:30:39.650Z,401.4650
2022-08-07T00:30:51.698Z,404.3860
2022-08-07T00:31:05.848Z,408.0990
2022-08-07T00:31:17.869Z,405.1230
2022-08-07T00:31:37.336Z,409.1000
2022-08-07T00:31:45.890Z,406.6060
2022-08-07T00:32:02.851Z,401.2230
2022-08-07T00:32:17.132Z,400.5000
2022-08-07T00:32:34.993Z,402.4340
2022-08-07T00:32:46.261Z,404.3860
2022-08-07T00:32:57.322Z,410.1060
2022-08-07T00:33:09.292Z,411.6250
2022-08-07T00:33:20.822Z,414.9550
2022-08-07T00:33:32.799Z,415.7310
2022-08-07T00:33:47.579Z,418.3390
2022-08-07T00:33:58.902Z,419.3920
2022-08-07T00:34:10.080Z,424.1940
2022-08-07T00:34:21.703Z,427.1830
2022-08-07T00:34:33.144Z,426.9100
2022-08-07T00:34:46.565Z,424.7340
2022-08-07T00:35:01.762Z,417.8150
2022-08-07T00:35:13.407Z,424.1940
2022-08-07T00:35:29.923Z,421.7790
2022-08-07T00:35:44.410Z,420.4500
2022-08-07T00:35:58.575Z,415.7310
2022-08-07T00:36:11.394Z,417.8150
2022-08-07T00:36:23.205Z,420.1850
2022-08-07T00:36:35.669Z,419.6560
2022-08-07T00:36:49.742Z,420.4500
2022-08-07T00:37:00.790Z,424.4640
2022-08-07T00:37:12.480Z,426.9100
2022-08-07T00:37:25.839Z,426.6370
2022-08-07T00:37:48.149Z,421.5130
2022-08-07T00:37:57.589Z,416.7710
2022-08-07T00:38:08.662Z,422.3140
2022-08-07T00:38:31.157Z,419.1280
2022-08-07T00:38:41.127Z,414.6970
2022-08-07T00:38:52.189Z,419.3920
2022-08-07T00:39:03.656Z,422.0460
2022-08-07T00:39:16.627Z,425.2760
2022-08-07T00:39:28.203Z,423.3860
2022-08-07T00:39:45.056Z,425.5480
2022-08-07T00:39:56.538Z,420.1850
2022-08-07T00:40:07.548Z,426.3640
2022-08-07T00:40:39.272Z,420.9810
2022-08-07T00:40:40.776Z,417.8150
2022-08-07T00:40:52.197Z,420.9810
2022-08-07T00:41:03.518Z,424.4640
2022-08-07T00:41:15.262Z,427.1830
2022-08-07T00:41:26.428Z,429.1080
2022-08-07T00:41:53.174Z,429.6610
2022-08-07T00:42:01.988Z,423.1170
2022-08-07T00:42:13.436Z,416.2500
2022-08-07T00:42:29.221Z,420.9810
2022-08-07T00:42:40.688Z,417.8150
2022-08-07T00:42:51.756Z,422.3140
2022-08-07T00:43:04.028Z,425.2760
2022-08-07T00:43:59.520Z,411.1180
2022-08-07T00:44:00.252Z,415.7310
2022-08-07T00:44:00.387Z,418.3390
2022-08-07T00:44:11.894Z,411.1180
2022-08-07T00:44:26.495Z,407.1020
2022-08-07T00:44:41.260Z,415.4720
2022-08-07T00:44:52.610Z,413.4120
2022-08-07T00:45:06.799Z,416.5100
2022-08-07T00:45:18.150Z,417.2920
2022-08-07T00:45:29.222Z,421.5130
2022-08-07T00:45:42.396Z,422.5810
2022-08-07T00:45:57.768Z,417.8150
2022-08-07T00:46:09.232Z,419.3920
2022-08-07T00:46:22.427Z,418.6020
2022-08-07T00:46:34.088Z,429.3840
2022-08-07T00:46:45.294Z,428.2810
2022-08-07T00:46:56.355Z,431.8870
2022-08-07T00:47:15.633Z,436.9810
2022-08-07T00:48:07.979Z,417.5540
2022-08-07T00:48:09.255Z,424.1940
2022-08-07T00:48:09.436Z,429.9380
2022-08-07T00:48:15.535Z,413.1560
2022-08-07T00:48:31.075Z,411.1180
2022-08-07T00:48:43.704Z,416.2500
2022-08-07T00:48:54.764Z,424.1940
2022-08-07T00:49:06.007Z,429.1080
2022-08-07T00:49:24.773Z,428.0060
2022-08-07T00:50:19.951Z,415.7310
2022-08-07T00:50:20.391Z,422.8490
2022-08-07T00:50:20.457Z,416.5100
2022-08-07T00:50:50.495Z,411.1180
2022-08-07T00:50:50.670Z,408.8490
2022-08-07T00:51:00.836Z,404.3860
2022-08-07T00:51:12.159Z,410.8650
2022-08-07T00:51:23.418Z,417.8150
2022-08-07T00:51:56.750Z,411.3710
2022-08-07T00:51:56.923Z,417.8150
2022-08-07T00:52:09.925Z,410.1060
2022-08-07T00:52:21.291Z,415.7310
2022-08-07T00:52:33.339Z,420.4500
2022-08-07T00:52:47.977Z,418.8650
2022-08-07T00:52:59.030Z,423.3860
2022-08-07T00:53:10.108Z,425.5480
2022-08-07T00:53:21.966Z,430.2150
2022-08-07T00:53:39.059Z,435.8390
2022-08-07T00:53:55.304Z,428.5560
2022-08-07T00:54:07.015Z,422.0460
2022-08-07T00:54:23.987Z,419.9200
2022-08-07T00:54:35.713Z,422.5810
2022-08-07T00:54:53.321Z,418.3390
2022-08-07T00:55:10.756Z,420.9810
2022-08-07T00:55:25.614Z,417.5540
2022-08-07T00:56:00.553Z,412.9000
2022-08-07T00:56:03.403Z,405.1230
2022-08-07T00:56:13.971Z,405.1230
2022-08-07T00:56:30.370Z,408.8490
2022-08-07T00:56:42.236Z,408.5990
2022-08-07T00:56:56.776Z,405.6160
2022-08-07T00:57:09.558Z,409.6030
2022-08-07T00:57:20.653Z,416.5100
2022-08-07T00:57:34.163Z,419.3920
2022-08-07T00:57:55.827Z,421.2460
2022-08-07T00:58:02.217Z,417.8150
2022-08-07T00:58:13.457Z,420.4500
2022-08-07T00:58:24.513Z,428.0060
2022-08-07T00:58:35.576Z,428.8320
2022-08-07T00:58:49.806Z,430.7710
2022-08-07T00:59:01.082Z,426.9100
2022-08-07T00:59:12.134Z,432.4470
2022-08-07T00:59:35.115Z,431.8870
2022-08-07T00:59:43.568Z,422.8490
2022-08-07T00:59:54.625Z,426.0910
2022-08-07T01:00:05.967Z,433.0090
2022-08-07T01:00:17.487Z,435.2700
2022-08-07T01:00:31.054Z,431.6070
2022-08-07T01:00:53.823Z,436.6950
2022-08-07T01:00:59.391Z,430.4930
2022-08-07T01:01:10.830Z,437.5550
2022-08-07T01:01:21.900Z,435.2700
2022-08-07T01:01:44.012Z,440.1540
2022-08-07T01:01:50.018Z,431.3280
2022-08-07T01:02:14.083Z,428.5560
2022-08-07T01:02:28.664Z,422.5810
2022-08-07T01:02:41.262Z,417.0310
2022-08-07T01:02:53.177Z,419.9200
2022-08-07T01:03:04.255Z,426.9100
2022-08-07T01:03:17.196Z,429.9380
2022-08-07T01:03:56.378Z,434.1360
2022-08-07T01:03:56.438Z,425.0050
2022-08-07T01:04:02.255Z,420.4500
2022-08-07T01:04:24.517Z,429.9380
2022-08-07T01:04:30.418Z,422.5810
2022-08-07T01:04:44.057Z,423.6550
2022-08-07T01:04:58.445Z,426.3640
2022-08-07T01:05:19.086Z,422.8490
2022-08-07T01:05:27.150Z,419.6560
2022-08-07T01:05:41.233Z,420.7150
2022-08-07T01:05:58.202Z,415.2140
2022-08-07T01:06:09.259Z,418.3390
2022-08-07T01:06:20.344Z,426.0910
2022-08-07T01:06:33.602Z,430.2150
2022-08-07T01:06:47.014Z,427.4570
2022-08-07T01:06:58.240Z,433.0090
2022-08-07T01:07:09.317Z,436.4090
2022-08-07T01:07:20.604Z,436.9810
2022-08-07T01:07:33.414Z,439.8640
2022-08-07T01:07:44.940Z,440.4450
2022-08-07T01:07:56.444Z,442.7840
2022-08-07T01:08:09.119Z,445.4460
2022-08-07T01:08:20.441Z,445.1490
2022-08-07T01:08:31.481Z,448.1410
2022-08-07T01:08:53.695Z,448.7440
2022-08-07T01:09:01.551Z,438.4180
2022-08-07T01:10:04.332Z,427.7310
2022-08-07T01:10:04.403Z,434.7020
2022-08-07T01:10:04.729Z,439.5740
2022-08-07T01:10:11.440Z,423.9240
2022-08-07T01:10:21.882Z,419.9200
2022-08-07T01:10:32.953Z,424.1940
2022-08-07T01:10:47.605Z,428.5560
2022-08-07T01:12:04.551Z,423.1170
2022-08-07T01:12:23.335Z,412.6440
2022-08-07T01:12:27.421Z,419.1280
2022-08-07T01:12:27.578Z,416.7710
2022-08-07T01:12:29.610Z,410.6120
2022-08-07T01:12:30.743Z,408.3490
2022-08-07T01:12:53.355Z,407.8490
2022-08-07T01:12:59.136Z,407.6000
2022-08-07T01:13:11.130Z,411.6250
2022-08-07T01:13:28.096Z,409.1000
2022-08-07T01:13:55.555Z,406.1100
2022-08-07T01:14:02.025Z,403.8970
2022-08-07T01:14:16.563Z,409.6030
2022-08-07T01:14:28.775Z,410.8650
2022-08-07T01:14:40.135Z,414.6970
2022-08-07T01:14:57.043Z,413.1560
2022-08-07T01:15:17.003Z,411.1180
2022-08-07T01:16:00.945Z,405.8630
2022-08-07T01:16:01.215Z,401.7070
2022-08-07T01:16:05.846Z,401.7070
2022-08-07T01:16:29.992Z,406.6060
2022-08-07T01:16:34.098Z,403.1640
2022-08-07T01:16:46.816Z,409.1000
2022-08-07T01:16:58.767Z,412.1340
2022-08-07T01:17:09.839Z,417.8150
2022-08-07T01:17:20.877Z,420.4500
2022-08-07T01:17:34.285Z,422.8490
2022-08-07T01:17:46.804Z,422.5810
2022-08-07T01:17:58.700Z,425.2760
2022-08-07T01:18:09.776Z,430.2150
2022-08-07T01:18:20.829Z,431.8870
2022-08-07T01:18:36.136Z,429.6610
2022-08-07T01:18:47.326Z,431.8870
2022-08-07T01:19:01.676Z,428.8320
2022-08-07T01:19:18.768Z,430.2150
2022-08-07T01:19:32.194Z,426.0910
2022-08-07T01:19:44.987Z,428.0060
2022-08-07T01:20:00.662Z,425.0050
2022-08-07T01:20:16.516Z,426.0910
2022-08-07T01:20:30.836Z,423.3860
2022-08-07T01:20:43.051Z,423.1170
2022-08-07T01:20:59.617Z,429.6610
2022-08-07T01:21:22.617Z,425.5480
2022-08-07T01:21:28.528Z,417.5540
2022-08-07T01:21:39.595Z,424.4640
2022-08-07T01:21:52.989Z,427.1830
2022-08-07T01:22:08.857Z,425.8190
2022-08-07T01:22:22.867Z,422.8490
2022-08-07T01:22:46.978Z,418.3390
2022-08-07T01:23:09.198Z,413.6680
2022-08-07T01:23:12.956Z,411.6250
2022-08-07T01:23:34.707Z,418.6020
2022-08-07T01:23:43.803Z,413.1560
2022-08-07T01:23:58.376Z,409.1000
2022-08-07T01:24:09.524Z,415.2140
2022-08-07T01:24:22.341Z,419.1280
2022-08-07T01:24:33.616Z,422.8490
2022-08-07T01:24:46.406Z,424.4640
2022-08-07T01:24:58.559Z,426.3640
2022-08-07T01:25:40.475Z,432.4470
2022-08-07T01:25:53.885Z,425.5480
2022-08-07T01:25:55.558Z,420.9810
2022-08-07T01:26:00.494Z,412.6440
2022-08-07T01:26:12.394Z,417.5540
2022-08-07T01:26:23.551Z,423.6550
2022-08-07T01:26:37.534Z,424.1940
2022-08-07T01:26:52.187Z,428.8320
2022-08-07T01:27:03.793Z,428.0060
2022-08-07T01:27:19.434Z,429.1080
2022-08-07T01:27:32.376Z,426.6370
2022-08-07T01:27:51.496Z,430.4930
2022-08-07T01:28:00.733Z,424.7340
2022-08-07T01:28:12.098Z,425.2760
2022-08-07T01:28:24.296Z,429.6610
2022-08-07T01:28:36.473Z,434.1360
2022-08-07T01:28:48.298Z,436.9810
2022-08-07T01:28:59.847Z,441.0270
2022-08-07T01:29:10.896Z,442.4900
2022-08-07T01:29:22.558Z,443.9630
2022-08-07T01:29:34.407Z,441.6110
2022-08-07T01:29:45.631Z,448.7440
2022-08-07T01:29:56.695Z,448.7440
2022-08-07T01:30:07.736Z,449.3480
2022-08-07T01:30:21.807Z,445.1490
2022-08-07T01:30:38.759Z,437.8420
2022-08-07T01:30:51.163Z,436.4090
2022-08-07T01:31:02.878Z,443.9630
2022-08-07T01:31:15.538Z,444.5550
2022-08-07T01:31:41.507Z,442.1970
2022-08-07T01:31:48.293Z,434.7020
2022-08-07T01:31:59.949Z,434.4190
2022-08-07T01:32:12.340Z,441.6110
2022-08-07T01:32:24.919Z,437.5550
2022-08-07T01:32:38.197Z,438.9950
2022-08-07T01:32:52.431Z,440.1540
2022-08-07T01:33:03.740Z,442.4900
2022-08-07T01:33:17.079Z,439.8640
2022-08-07T01:33:53.763Z,443.9630
2022-08-07T01:33:56.201Z,438.9950
2022-08-07T01:34:02.208Z,433.0090
2022-08-07T01:34:13.266Z,436.4090
2022-08-07T01:34:30.935Z,441.3190
2022-08-07T01:34:41.287Z,435.2700
2022-08-07T01:34:58.253Z,431.8870
2022-08-07T01:35:09.311Z,438.9950
2022-08-07T01:35:20.404Z,439.2840
2022-08-07T01:35:53.152Z,435.5540
2022-08-07T01:36:06.002Z,433.2900
2022-08-07T01:36:09.968Z,424.7340
2022-08-07T01:36:21.238Z,434.7020
2022-08-07T01:36:40.607Z,422.3140
2022-08-07T01:36:52.794Z,425.8190
2022-08-07T01:37:09.704Z,422.8490
2022-08-07T01:37:21.728Z,425.8190
2022-08-07T01:37:33.791Z,431.8870
2022-08-07T01:37:44.967Z,435.2700
2022-08-07T01:37:56.811Z,437.5550
2022-08-07T01:38:08.977Z,438.1300
2022-08-07T01:38:24.819Z,437.8420
2022-08-07T01:38:36.809Z,435.2700
2022-08-07T01:38:47.889Z,441.6110
2022-08-07T01:38:59.032Z,443.6680
2022-08-07T01:39:10.812Z,443.3730
2022-08-07T01:39:21.968Z,447.5390
2022-08-07T01:39:41.116Z,448.4420
2022-08-07T01:39:50.479Z,438.9950
2022-08-07T01:40:01.644Z,444.5550
2022-08-07T01:40:14.789Z,450.5630
2022-08-07T01:40:26.886Z,446.3410
2022-08-07T01:40:37.959Z,453.6280
2022-08-07T01:40:49.608Z,450.8680
2022-08-07T01:41:03.688Z,446.3410
2022-08-07T01:41:26.147Z,453.0120
2022-08-07T01:41:32.580Z,446.0420
2022-08-07T01:42:01.720Z,448.4420
2022-08-07T01:42:36.891Z,440.1540
2022-08-07T01:42:37.696Z,436.4090
2022-08-07T01:42:39.639Z,437.5550
2022-08-07T01:42:57.385Z,430.2150
2022-08-07T01:43:07.216Z,428.0060
2022-08-07T01:43:18.271Z,432.7280
2022-08-07T01:43:34.734Z,438.1300
2022-08-07T01:43:46.305Z,434.4190
2022-08-07T01:43:57.387Z,440.4450
2022-08-07T01:44:08.466Z,442.1970
2022-08-07T01:44:19.517Z,448.7440
2022-08-07T01:44:31.373Z,448.1410
2022-08-07T01:44:43.686Z,450.2590
2022-08-07T01:44:59.237Z,444.2590
2022-08-07T01:45:18.209Z,446.9390
2022-08-07T01:45:36.932Z,437.5550
2022-08-07T01:45:46.639Z,435.5540
2022-08-07T01:45:58.649Z,436.1240
2022-08-07T01:46:12.337Z,442.1970
2022-08-07T01:46:23.705Z,439.5740
2022-08-07T01:46:34.777Z,448.4420
2022-08-07T01:46:46.456Z,445.4460
2022-08-07T01:46:57.506Z,452.3970
2022-08-07T01:47:14.292Z,446.3410
2022-08-07T01:48:18.339Z,448.7440
2022-08-07T01:48:20.292Z,438.4180
2022-08-07T01:48:29.128Z,433.2900
2022-08-07T01:48:29.147Z,441.9040
2022-08-07T01:48:34.082Z,427.7310
2022-08-07T01:48:46.726Z,434.4190
2022-08-07T01:48:59.999Z,435.5540
2022-08-07T01:49:11.106Z,438.1300
2022-08-07T01:49:22.416Z,441.0270
2022-08-07T01:49:33.641Z,444.2590
2022-08-07T01:49:44.707Z,451.1730
2022-08-07T01:49:56.526Z,452.0900
2022-08-07T01:50:07.584Z,453.0120
2022-08-07T01:50:22.783Z,455.4870
2022-08-07T01:50:35.767Z,449.3480
2022-08-07T01:50:46.831Z,449.9550
2022-08-07T01:51:24.340Z,450.2590
2022-08-07T01:52:01.986Z,443.6680
2022-08-07T01:52:02.074Z,431.6070
2022-08-07T01:52:03.522Z,438.7060
2022-08-07T01:52:08.363Z,425.2760
2022-08-07T01:52:21.242Z,434.1360
2022-08-07T01:52:33.294Z,436.4090
2022-08-07T01:52:49.627Z,438.7060
2022-08-07T01:53:01.435Z,436.6950
2022-08-07T01:53:20.857Z,430.7710
2022-08-07T01:54:09.352Z,431.0490
2022-08-07T01:54:09.402Z,425.8190
2022-08-07T01:54:12.254Z,424.1940
2022-08-07T01:54:36.407Z,423.1170
2022-08-07T01:54:40.852Z,416.7710
2022-08-07T01:54:51.901Z,424.4640
2022-08-07T01:55:03.856Z,430.2150
2022-08-07T01:55:22.518Z,435.2700
2022-08-07T01:55:33.408Z,429.6610
2022-08-07T01:55:44.796Z,431.8870
2022-08-07T01:55:55.866Z,437.8420
2022-08-07T01:56:06.947Z,440.1540
2022-08-07T01:56:18.001Z,445.7440
2022-08-07T01:56:29.596Z,448.1410
2022-08-07T01:56:43.996Z,445.1490
2022-08-07T01:57:00.957Z,440.4450
2022-08-07T01:57:20.677Z,436.9810
2022-08-07T01:57:34.015Z,436.6950
2022-08-07T01:58:06.198Z,429.6610
2022-08-07T01:58:06.921Z,428.2810
2022-08-07T01:58:29.145Z,424.7340
2022-08-07T01:58:40.944Z,421.5130
2022-08-07T01:58:52.317Z,424.4640
2022-08-07T01:59:03.836Z,431.3280
2022-08-07T01:59:15.707Z,434.4190
2022-08-07T01:59:30.832Z,440.4450
2022-08-07T01:59:43.812Z,437.2680
2022-08-07T01:59:55.359Z,438.4180
2022-08-07T02:00:12.805Z,441.0270
2022-08-07T02:00:28.866Z,441.0270
2022-08-07T02:00:45.422Z,431.8870
2022-08-07T02:01:10.169Z,426.9100
2022-08-07T02:01:59.355Z,426.3640
2022-08-07T02:01:59.626Z,419.1280
2022-08-07T02:02:02.876Z,423.1170
2022-08-07T02:02:06.378Z,420.9810
2022-08-07T02:03:11.365Z,422.3140
2022-08-07T02:03:12.310Z,415.2140
2022-08-07T02:03:18.405Z,420.9810
2022-08-07T02:03:18.961Z,420.9810
2022-08-07T02:03:26.542Z,411.3710
2022-08-07T02:03:50.303Z,408.0990
2022-08-07T02:03:59.673Z,409.3510
2022-08-07T02:04:10.899Z,417.5540
2022-08-07T02:04:22.602Z,420.7150
2022-08-07T02:04:37.915Z,422.8490
2022-08-07T02:04:55.611Z,422.3140
2022-08-07T02:05:07.181Z,418.8650
2022-08-07T02:05:43.373Z,424.7340
2022-08-07T02:05:47.574Z,420.1850
2022-08-07T02:05:59.609Z,413.1560
2022-08-07T02:06:30.789Z,415.7310
2022-08-07T02:06:31.690Z,408.5990
2022-08-07T02:06:43.145Z,407.6000
2022-08-07T02:06:57.019Z,409.6030
2022-08-07T02:07:08.075Z,415.7310
2022-08-07T02:07:19.738Z,422.3140
2022-08-07T02:07:35.830Z,423.9240
2022-08-07T02:07:51.342Z,419.6560
2022-08-07T02:08:02.965Z,425.2760
2022-08-07T02:08:16.053Z,425.2760
2022-08-07T02:08:27.120Z,428.8320
2022-08-07T02:08:38.345Z,430.2150
2022-08-07T02:08:50.464Z,434.1360
2022-08-07T02:09:05.607Z,431.0490
2022-08-07T02:09:16.687Z,437.8420
2022-08-07T02:09:53.045Z,426.0910
2022-08-07T02:09:53.149Z,433.0090
2022-08-07T02:10:07.580Z,417.0310
2022-08-07T02:10:24.550Z,420.4500
2022-08-07T02:10:35.622Z,423.9240
2022-08-07T02:10:48.683Z,430.7710
2022-08-07T02:11:03.796Z,426.6370
2022-08-07T02:11:30.882Z,428.0060
2022-08-07T02:12:02.877Z,427.1830
2022-08-07T02:12:03.268Z,421.5130
2022-08-07T02:12:06.096Z,418.3390
2022-08-07T02:12:17.635Z,419.3920
2022-08-07T02:12:30.988Z,428.2810
2022-08-07T02:12:42.371Z,430.2150
2022-08-07T02:12:57.530Z,423.1170
2022-08-07T02:13:10.875Z,429.9380
2022-08-07T02:13:21.915Z,435.2700
2022-08-07T02:13:57.143Z,429.1080
2022-08-07T02:13:58.117Z,420.9810
2022-08-07T02:14:32.460Z,422.0460
2022-08-07T02:14:40.571Z,417.2920
2022-08-07T02:14:46.744Z,411.6250
2022-08-07T02:14:57.813Z,422.0460
2022-08-07T02:15:08.889Z,426.6370
2022-08-07T02:15:19.929Z,433.5720
2022-08-07T02:15:34.075Z,433.5720
2022-08-07T02:15:45.386Z,438.1300
2022-08-07T02:15:56.449Z,441.6110
2022-08-07T02:16:07.679Z,441.3190
2022-08-07T02:16:28.816Z,435.5540
2022-08-07T02:16:40.112Z,433.5720
2022-08-07T02:16:51.182Z,436.4090
2022-08-07T02:17:02.218Z,443.0790
2022-08-07T02:17:16.527Z,442.7840
2022-08-07T02:17:34.204Z,437.2680
2022-08-07T02:17:49.503Z,433.5720
2022-08-07T02:18:01.099Z,432.4470
2022-08-07T02:18:12.208Z,441.6110
2022-08-07T02:18:23.280Z,448.7440
2022-08-07T02:18:37.249Z,443.9630
2022-08-07T02:18:54.209Z,439.5740
2022-08-07T02:19:05.794Z,443.3730
2022-08-07T02:20:04.660Z,436.9810
2022-08-07T02:20:06.737Z,429.6610
2022-08-07T02:20:07.652Z,433.5720
2022-08-07T02:20:17.249Z,426.6370
2022-08-07T02:20:30.087Z,421.2460
2022-08-07T02:20:41.461Z,431.3280
2022-08-07T02:20:55.939Z,436.6950
2022-08-07T02:21:09.420Z,433.5720
2022-08-07T02:21:26.367Z,428.0060
2022-08-07T02:21:56.298Z,423.9240
2022-08-07T02:22:00.302Z,422.8490
2022-08-07T02:22:13.911Z,421.5130
2022-08-07T02:22:30.869Z,421.2460
2022-08-07T02:22:43.629Z,428.2810
2022-08-07T02:22:55.349Z,430.4930
2022-08-07T02:23:06.418Z,436.6950
2022-08-07T02:23:23.762Z,435.8390
2022-08-07T02:23:36.139Z,433.5720
2022-08-07T02:23:49.342Z,433.5720
2022-08-07T02:24:00.539Z,438.9950
2022-08-07T02:24:13.030Z,439.2840
2022-08-07T02:24:30.256Z,435.2700
2022-08-07T02:24:41.508Z,438.1300
2022-08-07T02:24:55.726Z,439.2840
2022-08-07T02:25:17.480Z,444.8520
2022-08-07T02:26:10.159Z,436.4090
2022-08-07T02:26:26.652Z,430.4930
2022-08-07T02:26:26.742Z,423.1170
2022-08-07T02:26:33.093Z,425.5480
2022-08-07T02:26:34.505Z,422.3140
2022-08-07T02:26:45.833Z,420.9810
2022-08-07T02:26:56.882Z,429.9380
2022-08-07T02:27:11.353Z,429.9380
2022-08-07T02:27:24.042Z,434.4190
2022-08-07T02:27:35.362Z,433.8540
2022-08-07T02:27:51.966Z,440.1540
2022-08-07T02:28:03.408Z,436.1240
2022-08-07T02:28:24.373Z,434.1360
2022-08-07T02:28:35.198Z,427.4570
2022-08-07T02:28:46.233Z,436.6950
2022-08-07T02:28:59.162Z,433.2900
2022-08-07T02:29:13.656Z,437.2680
2022-08-07T02:29:24.939Z,435.2700
2022-08-07T02:29:48.541Z,440.4450
2022-08-07T02:29:55.105Z,436.1240
2022-08-07T02:30:07.060Z,436.4090
2022-08-07T02:30:18.801Z,440.4450
2022-08-07T02:30:30.322Z,443.3730
2022-08-07T02:30:42.468Z,447.5390
2022-08-07T02:30:53.561Z,451.7840
2022-08-07T02:31:18.774Z,453.9370
2022-08-07T02:31:28.951Z,448.7440
2022-08-07T02:31:38.546Z,437.5550
2022-08-07T02:31:50.983Z,442.1970
2022-08-07T02:32:06.023Z,442.4900
2022-08-07T02:32:23.411Z,439.2840
2022-08-07T02:32:42.551Z,432.4470
2022-08-07T02:33:00.185Z,431.3280
2022-08-07T02:33:12.761Z,427.1830
2022-08-07T02:33:32.884Z,425.2760
2022-08-07T02:34:01.698Z,425.8190
2022-08-07T02:34:11.062Z,418.3390
2022-08-07T02:34:20.643Z,418.0770
2022-08-07T02:34:31.711Z,425.2760
2022-08-07T02:34:51.026Z,432.1670
2022-08-07T02:35:01.026Z,428.0060
2022-08-07T02:35:12.251Z,429.1080
2022-08-07T02:36:27.133Z,416.7710
2022-08-07T02:36:29.775Z,417.5540
2022-08-07T02:36:30.096Z,423.9240
2022-08-07T02:36:30.336Z,425.8190
2022-08-07T02:36:37.000Z,415.2140
2022-08-07T02:36:48.062Z,423.6550
2022-08-07T02:36:59.340Z,429.9380
2022-08-07T02:37:10.370Z,434.4190
2022-08-07T02:37:21.441Z,440.1540
2022-08-07T02:37:34.259Z,445.1490
2022-08-07T02:37:47.423Z,439.5740
2022-08-07T02:37:58.488Z,446.0420
2022-08-07T02:38:09.897Z,448.7440
2022-08-07T02:38:28.190Z,444.5550
2022-08-07T02:38:40.428Z,442.1970
2022-08-07T02:38:57.387Z,435.8390
2022-08-07T02:39:16.253Z,439.8640
2022-08-07T02:39:43.229Z,436.4090
2022-08-07T02:40:02.183Z,432.4470
2022-08-07T02:40:12.019Z,431.8870
2022-08-07T02:40:31.223Z,425.2760
2022-08-07T02:40:35.165Z,424.1940
2022-08-07T02:40:46.844Z,426.6370
2022-08-07T02:40:57.948Z,432.7280
2022-08-07T02:41:10.844Z,437.5550
2022-08-07T02:41:22.148Z,439.8640
2022-08-07T02:41:37.315Z,443.6680
2022-08-07T02:41:50.729Z,439.5740
2022-08-07T02:42:10.386Z,434.9860
2022-08-07T02:42:22.810Z,431.3280
2022-08-07T02:42:33.879Z,435.2700
2022-08-07T02:42:44.924Z,443.0790
2022-08-07T02:42:55.991Z,444.8520
2022-08-07T02:43:07.905Z,449.9550
2022-08-07T02:43:19.532Z,448.7440
2022-08-07T02:43:32.042Z,451.1730
2022-08-07T02:43:43.664Z,454.5560